Time,TemperatureF,DewpointF,PressureIn,WindDirection,WindDirectionDegrees,WindSpeedMPH,WindSpeedGustMPH,Humidity,HourlyPrecipIn,Conditions,Clouds,dailyrainin,SoftwareType,DateUTC
2013-02-05 00:00:00,35.4,34.6,29.88,West,281,0.0,4.0,97,0.01,,---,0.01,VWS V14.01,2013-02-05 05:00:00,
2013-02-05 00:01:00,35.4,34.6,29.88,West,263,0.0,4.0,97,0.01,,---,0.00,VWS V14.01,2013-02-05 05:01:00,
2013-02-05 00:06:00,35.3,34.5,29.88,West,263,0.0,0.0,97,0.01,,---,0.00,VWS V14.01,2013-02-05 05:06:00,
2013-02-05 00:11:00,35.4,34.6,29.88,West,263,0.0,0.0,97,0.01,,---,0.00,VWS V14.01,2013-02-05 05:11:00,
2013-02-05 00:16:00,35.4,34.6,29.88,West,267,0.0,0.0,97,0.01,,---,0.00,VWS V14.01,2013-02-05 05:16:00,
2013-02-05 00:21:00,35.5,34.7,29.88,West,262,0.0,1.0,97,0.01,,---,0.00,VWS V14.01,2013-02-05 05:21:00,
2013-02-05 00:26:00,35.5,34.7,29.88,WNW,295,0.0,2.0,97,0.02,,---,0.01,VWS V14.01,2013-02-05 05:26:00,
2013-02-05 00:31:00,35.6,34.8,29.88,West,271,2.0,2.0,97,0.02,,---,0.01,VWS V14.01,2013-02-05 05:31:00,
2013-02-05 00:36:00,35.9,35.1,29.88,West,278,1.0,6.0,97,0.01,,---,0.01,VWS V14.01,2013-02-05 05:36:00,
2013-02-05 00:41:00,36.0,35.2,29.88,West,270,0.0,6.0,97,0.01,,---,0.01,VWS V14.01,2013-02-05 05:41:00,
2013-02-05 00:46:00,36.1,35.3,29.88,West,278,2.0,6.0,97,0.02,,---,0.02,VWS V14.01,2013-02-05 05:46:00,
2013-02-05 00:51:00,36.1,35.3,29.88,West,277,3.0,6.0,97,0.02,,---,0.02,VWS V14.01,2013-02-05 05:51:00,
2013-02-05 00:56:00,36.1,35.3,29.88,West,264,1.0,6.0,97,0.02,,---,0.02,VWS V14.01,2013-02-05 05:56:00,
2013-02-05 01:01:00,36.0,35.2,29.88,West,276,0.0,6.0,97,0.02,,---,0.02,VWS V14.01,2013-02-05 06:01:00,
2013-02-05 01:06:00,36.0,35.2,29.88,West,278,1.0,2.0,97,0.02,,---,0.02,VWS V14.01,2013-02-05 06:06:00,
2013-02-05 01:11:00,36.0,35.2,29.88,West,267,0.0,2.0,97,0.02,,---,0.02,VWS V14.01,2013-02-05 06:11:00,
2013-02-05 01:16:00,36.0,35.2,29.88,West,270,0.0,2.0,97,0.03,,---,0.03,VWS V14.01,2013-02-05 06:16:00,
2013-02-05 01:21:00,35.9,35.1,29.88,West,268,0.0,2.0,97,0.03,,---,0.03,VWS V14.01,2013-02-05 06:21:00,
2013-02-05 01:26:00,36.0,35.2,29.88,West,276,0.0,2.0,97,0.03,,---,0.03,VWS V14.01,2013-02-05 06:26:00,
2013-02-05 01:31:00,35.9,35.1,29.88,WSW,257,0.0,2.0,97,0.03,,---,0.03,VWS V14.01,2013-02-05 06:31:00,
2013-02-05 01:36:00,35.8,35.0,29.87,WSW,257,0.0,0.0,97,0.02,,---,0.03,VWS V14.01,2013-02-05 06:36:00,
2013-02-05 01:41:00,35.8,35.0,29.87,WSW,257,0.0,0.0,97,0.03,,---,0.04,VWS V14.01,2013-02-05 06:41:00,
2013-02-05 01:46:00,35.7,34.9,29.87,WSW,257,0.0,0.0,97,0.03,,---,0.04,VWS V14.01,2013-02-05 06:46:00,
2013-02-05 01:51:00,35.8,35.0,29.88,West,259,0.0,0.0,97,0.03,,---,0.04,VWS V14.01,2013-02-05 06:51:00,
2013-02-05 01:56:00,35.8,35.0,29.88,West,259,0.0,0.0,97,0.03,,---,0.04,VWS V14.01,2013-02-05 06:56:00,
2013-02-05 02:01:00,35.8,35.0,29.88,West,259,0.0,0.0,97,0.03,,---,0.04,VWS V14.01,2013-02-05 07:01:00,
2013-02-05 02:06:00,35.8,35.0,29.88,West,276,0.0,0.0,97,0.02,,---,0.04,VWS V14.01,2013-02-05 07:06:00,
2013-02-05 02:11:00,35.7,34.9,29.88,WNW,291,0.0,0.0,97,0.02,,---,0.04,VWS V14.01,2013-02-05 07:11:00,
2013-02-05 02:16:00,35.7,35.2,29.88,West,276,0.0,2.0,98,0.02,,---,0.04,VWS V14.01,2013-02-05 07:16:00,
2013-02-05 02:21:00,35.7,35.2,29.88,West,274,1.0,2.0,98,0.02,,---,0.04,VWS V14.01,2013-02-05 07:21:00,
2013-02-05 02:26:00,35.7,35.2,29.88,WNW,301,1.0,3.0,98,0.02,,---,0.04,VWS V14.01,2013-02-05 07:26:00,
2013-02-05 02:31:00,35.6,35.1,29.88,WNW,291,0.0,3.0,98,0.03,,---,0.05,VWS V14.01,2013-02-05 07:31:00,
2013-02-05 02:36:00,35.6,35.1,29.89,WNW,287,1.0,2.0,98,0.02,,---,0.05,VWS V14.01,2013-02-05 07:36:00,
2013-02-05 02:41:00,35.4,34.9,29.89,NW,304,2.0,2.0,98,0.02,,---,0.05,VWS V14.01,2013-02-05 07:41:00,
2013-02-05 02:46:00,35.3,34.8,29.89,West,280,0.0,3.0,98,0.02,,---,0.05,VWS V14.01,2013-02-05 07:46:00,
2013-02-05 02:51:00,35.1,34.3,29.89,West,269,0.0,3.0,97,0.02,,---,0.05,VWS V14.01,2013-02-05 07:51:00,
2013-02-05 02:56:00,34.9,34.1,29.89,West,281,0.0,3.0,97,0.02,,---,0.05,VWS V14.01,2013-02-05 07:56:00,
2013-02-05 03:01:00,34.9,34.1,29.88,WNW,294,1.0,3.0,97,0.02,,---,0.05,VWS V14.01,2013-02-05 08:01:00,
2013-02-05 03:06:00,34.7,33.9,29.88,WNW,293,0.0,1.0,97,0.01,,---,0.05,VWS V14.01,2013-02-05 08:06:00,
2013-02-05 03:11:00,34.6,33.8,29.87,West,274,0.0,1.0,97,0.02,,---,0.06,VWS V14.01,2013-02-05 08:11:00,
2013-02-05 03:16:00,34.5,33.7,29.87,West,274,0.0,1.0,97,0.02,,---,0.06,VWS V14.01,2013-02-05 08:16:00,
2013-02-05 03:21:00,34.5,33.7,29.88,West,274,0.0,1.0,97,0.02,,---,0.06,VWS V14.01,2013-02-05 08:21:00,
2013-02-05 03:26:00,34.4,33.6,29.88,NNW,328,3.0,4.0,97,0.02,,---,0.06,VWS V14.01,2013-02-05 08:26:00,
2013-02-05 03:31:00,34.2,33.4,29.87,NNW,328,0.0,4.0,97,0.02,,---,0.06,VWS V14.01,2013-02-05 08:31:00,
2013-02-05 03:36:00,34.0,33.2,29.88,NW,318,0.0,1.0,97,0.01,,---,0.06,VWS V14.01,2013-02-05 08:36:00,
2013-02-05 03:41:00,33.9,33.1,29.88,NW,319,0.0,3.0,97,0.01,,---,0.06,VWS V14.01,2013-02-05 08:41:00,
2013-02-05 03:46:00,33.7,32.9,29.88,NW,323,0.0,3.0,97,0.01,,---,0.06,VWS V14.01,2013-02-05 08:46:00,
2013-02-05 03:51:00,33.6,32.8,29.88,NW,307,1.0,3.0,97,0.01,,---,0.06,VWS V14.01,2013-02-05 08:51:00,
2013-02-05 03:56:00,33.5,32.7,29.88,NW,308,1.0,3.0,97,0.01,,---,0.06,VWS V14.01,2013-02-05 08:56:00,
2013-02-05 04:01:00,33.4,32.6,29.88,NNW,336,0.0,3.0,97,0.01,,---,0.06,VWS V14.01,2013-02-05 09:01:00,
2013-02-05 04:06:00,33.3,32.5,29.88,NNW,335,0.0,0.0,97,0.01,,---,0.06,VWS V14.01,2013-02-05 09:06:00,
2013-02-05 04:11:00,33.3,32.5,29.88,SW,222,0.0,0.0,97,0.01,,---,0.06,VWS V14.01,2013-02-05 09:11:00,
2013-02-05 04:16:00,33.2,32.4,29.89,WNW,288,1.0,3.0,97,0.01,,---,0.06,VWS V14.01,2013-02-05 09:16:00,
2013-02-05 04:21:00,33.0,32.2,29.89,NW,323,2.0,3.0,97,0.01,,---,0.06,VWS V14.01,2013-02-05 09:21:00,
2013-02-05 04:26:00,32.5,31.5,29.90,NNE,18,3.0,9.0,96,0.01,,---,0.06,VWS V14.01,2013-02-05 09:26:00,
2013-02-05 04:31:00,32.1,31.1,29.89,West,278,0.0,9.0,96,0.01,,---,0.06,VWS V14.01,2013-02-05 09:31:00,
2013-02-05 04:36:00,31.8,30.8,29.89,NNW,335,1.0,6.0,96,0.00,,---,0.06,VWS V14.01,2013-02-05 09:36:00,
2013-02-05 04:41:00,31.6,30.6,29.90,NW,304,1.0,6.0,96,0.00,,---,0.06,VWS V14.01,2013-02-05 09:41:00,
2013-02-05 04:46:00,31.5,30.5,29.90,WNW,288,1.0,6.0,96,0.00,,---,0.06,VWS V14.01,2013-02-05 09:46:00,
2013-02-05 04:51:00,31.3,30.3,29.90,WNW,298,1.0,6.0,96,0.00,,---,0.06,VWS V14.01,2013-02-05 09:51:00,
2013-02-05 04:56:00,31.1,30.1,29.90,NW,320,1.0,6.0,96,0.00,,---,0.06,VWS V14.01,2013-02-05 09:56:00,
2013-02-05 05:01:00,30.9,29.6,29.90,WNW,300,0.0,6.0,95,0.00,,---,0.06,VWS V14.01,2013-02-05 10:01:00,
2013-02-05 05:06:00,30.8,29.5,29.90,NNE,15,0.0,5.0,95,0.00,,---,0.06,VWS V14.01,2013-02-05 10:06:00,
2013-02-05 05:11:00,30.7,29.2,29.90,NNW,328,0.0,5.0,94,0.00,,---,0.06,VWS V14.01,2013-02-05 10:11:00,
2013-02-05 05:16:00,30.6,29.1,29.90,NNW,340,0.0,5.0,94,0.00,,---,0.06,VWS V14.01,2013-02-05 10:16:00,
2013-02-05 05:21:00,30.6,28.8,29.89,NW,304,0.0,5.0,93,0.00,,---,0.06,VWS V14.01,2013-02-05 10:21:00,
2013-02-05 05:26:00,30.5,28.7,29.90,NW,308,0.0,5.0,93,0.00,,---,0.06,VWS V14.01,2013-02-05 10:26:00,
2013-02-05 05:31:00,30.5,28.7,29.90,NW,325,0.0,5.0,93,0.00,,---,0.06,VWS V14.01,2013-02-05 10:31:00,
2013-02-05 05:36:00,30.4,28.6,29.89,NNW,342,1.0,4.0,93,0.00,,---,0.06,VWS V14.01,2013-02-05 10:36:00,
2013-02-05 05:41:00,30.4,28.4,29.89,North,357,0.0,4.0,92,0.00,,---,0.06,VWS V14.01,2013-02-05 10:41:00,
2013-02-05 05:46:00,30.4,28.4,29.89,North,9,0.0,4.0,92,0.00,,---,0.06,VWS V14.01,2013-02-05 10:46:00,
2013-02-05 05:51:00,30.3,28.3,29.89,NNW,330,0.0,4.0,92,0.00,,---,0.06,VWS V14.01,2013-02-05 10:51:00,
2013-02-05 05:56:00,30.3,28.3,29.89,North,10,0.0,4.0,92,0.00,,---,0.06,VWS V14.01,2013-02-05 10:56:00,
2013-02-05 06:01:00,30.2,28.2,29.89,NNW,334,0.0,4.0,92,0.00,,---,0.06,VWS V14.01,2013-02-05 11:01:00,
2013-02-05 06:06:00,30.2,28.2,29.90,NNW,330,0.0,0.0,92,0.00,,---,0.06,VWS V14.01,2013-02-05 11:06:00,
2013-02-05 06:11:00,30.1,27.8,29.90,NW,325,0.0,1.0,91,0.00,,---,0.06,VWS V14.01,2013-02-05 11:11:00,
2013-02-05 06:16:00,30.1,27.8,29.89,NNE,16,0.0,1.0,91,0.00,,---,0.06,VWS V14.01,2013-02-05 11:16:00,
2013-02-05 06:21:00,30.0,28.0,29.89,NNE,16,0.0,1.0,92,0.00,,---,0.06,VWS V14.01,2013-02-05 11:21:00,
2013-02-05 06:26:00,30.0,27.7,29.90,NNW,345,0.0,1.0,91,0.00,,---,0.06,VWS V14.01,2013-02-05 11:26:00,
2013-02-05 06:31:00,29.9,27.9,29.90,NNW,332,0.0,1.0,92,0.00,,---,0.06,VWS V14.01,2013-02-05 11:31:00,
2013-02-05 06:36:00,29.8,27.5,29.90,WNW,300,0.0,3.0,91,0.00,,---,0.06,VWS V14.01,2013-02-05 11:36:00,
2013-02-05 06:41:00,29.6,27.3,29.89,WNW,302,0.0,3.0,91,0.00,,---,0.06,VWS V14.01,2013-02-05 11:41:00,
2013-02-05 06:46:00,29.5,27.2,29.89,WNW,302,0.0,3.0,91,0.00,,---,0.06,VWS V14.01,2013-02-05 11:46:00,
2013-02-05 06:51:00,29.3,27.0,29.90,WNW,302,0.0,3.0,91,0.00,,---,0.06,VWS V14.01,2013-02-05 11:51:00,
2013-02-05 06:56:00,29.1,27.1,29.90,NW,318,0.0,3.0,92,0.00,,---,0.06,VWS V14.01,2013-02-05 11:56:00,
2013-02-05 07:01:00,28.9,26.9,29.91,WNW,295,1.0,3.0,92,0.00,,---,0.06,VWS V14.01,2013-02-05 12:01:00,
2013-02-05 07:06:00,28.8,26.8,29.91,NW,326,1.0,1.0,92,0.00,,---,0.06,VWS V14.01,2013-02-05 12:06:00,
2013-02-05 07:11:00,28.6,26.6,29.91,NNW,328,1.0,1.0,92,0.00,,---,0.06,VWS V14.01,2013-02-05 12:11:00,
2013-02-05 07:16:00,28.4,26.4,29.91,NNW,328,0.0,1.0,92,0.00,,---,0.06,VWS V14.01,2013-02-05 12:16:00,
2013-02-05 07:21:00,28.2,26.2,29.90,NNW,328,0.0,1.0,92,0.00,,---,0.06,VWS V14.01,2013-02-05 12:21:00,
2013-02-05 07:26:00,28.0,26.0,29.91,NNW,328,0.0,1.0,92,0.00,,---,0.06,VWS V14.01,2013-02-05 12:26:00,
2013-02-05 07:31:00,27.9,26.1,29.92,NW,318,0.0,1.0,93,0.00,,---,0.06,VWS V14.01,2013-02-05 12:31:00,
2013-02-05 07:36:00,27.8,26.0,29.92,NNE,13,0.0,0.0,93,0.00,,---,0.06,VWS V14.01,2013-02-05 12:36:00,
2013-02-05 07:41:00,27.8,26.0,29.92,WNW,302,0.0,0.0,93,0.00,,---,0.06,VWS V14.01,2013-02-05 12:41:00,
2013-02-05 07:46:00,27.9,26.1,29.93,WNW,302,0.0,0.0,93,0.00,,---,0.06,VWS V14.01,2013-02-05 12:46:00,
2013-02-05 07:51:00,28.0,26.2,29.93,WNW,284,0.0,0.0,93,0.00,,---,0.06,VWS V14.01,2013-02-05 12:51:00,
2013-02-05 07:56:00,28.1,26.3,29.92,NW,312,0.0,0.0,93,0.00,,---,0.06,VWS V14.01,2013-02-05 12:56:00,
2013-02-05 08:01:00,28.0,26.2,29.92,NNE,27,0.0,0.0,93,0.00,,---,0.06,VWS V14.01,2013-02-05 13:01:00,
2013-02-05 08:06:00,27.9,26.1,29.93,NNE,27,0.0,0.0,93,0.00,,---,0.06,VWS V14.01,2013-02-05 13:06:00,
2013-02-05 08:11:00,27.9,26.1,29.93,WNW,293,0.0,0.0,93,0.00,,---,0.06,VWS V14.01,2013-02-05 13:11:00,
2013-02-05 08:16:00,27.9,26.1,29.93,WNW,293,0.0,0.0,93,0.00,,---,0.06,VWS V14.01,2013-02-05 13:16:00,
2013-02-05 08:21:00,28.0,26.2,29.93,WNW,293,0.0,0.0,93,0.00,,---,0.06,VWS V14.01,2013-02-05 13:21:00,
2013-02-05 08:26:00,28.2,26.4,29.93,WNW,292,0.0,0.0,93,0.00,,---,0.06,VWS V14.01,2013-02-05 13:26:00,
2013-02-05 08:30:00,28.3,26.5,29.93,West,271,0.0,0.0,93,0.00,,---,0.06,VWS V14.01,2013-02-05 13:30:00,
2013-02-05 08:35:00,28.3,26.3,29.93,WNW,294,1.0,1.0,92,0.00,,---,0.06,VWS V14.01,2013-02-05 13:35:00,
2013-02-05 08:40:00,28.3,26.3,29.94,WNW,288,0.0,2.0,92,0.00,,---,0.06,VWS V14.01,2013-02-05 13:40:00,
2013-02-05 08:45:00,28.4,26.4,29.95,West,281,0.0,2.0,92,0.00,,---,0.06,VWS V14.01,2013-02-05 13:45:00,
2013-02-05 08:50:00,28.5,26.5,29.95,West,275,0.0,2.0,92,0.00,,---,0.06,VWS V14.01,2013-02-05 13:50:00,
2013-02-05 08:55:00,28.8,26.8,29.94,NNW,342,0.0,2.0,92,0.00,,---,0.06,VWS V14.01,2013-02-05 13:55:00,
2013-02-05 09:00:00,28.9,26.6,29.95,NW,313,1.0,2.0,91,0.00,,---,0.06,VWS V14.01,2013-02-05 14:00:00,
2013-02-05 09:05:00,29.0,26.7,29.95,NNW,330,1.0,2.0,91,0.00,,---,0.06,VWS V14.01,2013-02-05 14:05:00,
2013-02-05 09:10:00,29.2,26.9,29.95,North,354,0.0,2.0,91,0.00,,---,0.06,VWS V14.01,2013-02-05 14:10:00,
2013-02-05 09:15:00,29.6,27.3,29.94,North,354,0.0,2.0,91,0.00,,---,0.06,VWS V14.01,2013-02-05 14:15:00,
2013-02-05 09:20:00,29.8,27.2,29.96,WNW,296,0.0,3.0,90,0.00,,---,0.06,VWS V14.01,2013-02-05 14:20:00,
2013-02-05 09:25:00,29.8,27.0,29.95,NW,308,0.0,3.0,89,0.00,,---,0.06,VWS V14.01,2013-02-05 14:25:00,
2013-02-05 09:30:00,29.9,27.1,29.94,West,277,0.0,3.0,89,0.00,,---,0.06,VWS V14.01,2013-02-05 14:30:00,
2013-02-05 09:35:00,29.9,26.8,29.94,WNW,283,1.0,2.0,88,0.00,,---,0.06,VWS V14.01,2013-02-05 14:35:00,
2013-02-05 09:40:00,29.9,26.8,29.94,West,272,0.0,2.0,88,0.00,,---,0.06,VWS V14.01,2013-02-05 14:40:00,
2013-02-05 09:45:00,30.6,27.8,29.94,NNW,327,0.0,2.0,89,0.00,,---,0.06,VWS V14.01,2013-02-05 14:45:00,
2013-02-05 09:50:00,30.6,27.5,29.94,NW,326,0.0,2.0,88,0.00,,---,0.06,VWS V14.01,2013-02-05 14:50:00,
2013-02-05 09:55:00,30.6,27.5,29.95,WNW,284,2.0,4.0,88,0.00,,---,0.06,VWS V14.01,2013-02-05 14:55:00,
2013-02-05 10:00:00,30.4,27.3,29.95,NW,308,0.0,4.0,88,0.00,,---,0.06,VWS V14.01,2013-02-05 15:00:00,
2013-02-05 10:05:00,30.6,27.5,29.95,WNW,297,2.0,2.0,88,0.00,,---,0.06,VWS V14.01,2013-02-05 15:05:00,
2013-02-05 10:10:00,30.6,27.5,29.95,NW,309,1.0,3.0,88,0.00,,---,0.06,VWS V14.01,2013-02-05 15:10:00,
2013-02-05 10:15:00,30.5,27.1,29.95,WNW,295,3.0,4.0,87,0.00,,---,0.06,VWS V14.01,2013-02-05 15:15:00,
2013-02-05 10:20:00,30.6,27.2,29.95,WNW,291,3.0,4.0,87,0.00,,---,0.06,VWS V14.01,2013-02-05 15:20:00,
2013-02-05 10:25:00,30.6,27.2,29.95,WNW,285,3.0,4.0,87,0.00,,---,0.06,VWS V14.01,2013-02-05 15:25:00,
2013-02-05 10:30:00,30.7,27.0,29.95,WSW,246,3.0,5.0,86,0.00,,---,0.06,VWS V14.01,2013-02-05 15:30:00,
2013-02-05 10:35:00,30.6,26.9,29.95,WNW,297,2.0,4.0,86,0.00,,---,0.06,VWS V14.01,2013-02-05 15:35:00,
2013-02-05 10:40:00,30.6,26.9,29.95,WNW,284,1.0,4.0,86,0.00,,---,0.06,VWS V14.01,2013-02-05 15:40:00,
2013-02-05 10:45:00,30.7,27.0,29.95,West,262,1.0,4.0,86,0.00,,---,0.06,VWS V14.01,2013-02-05 15:45:00,
2013-02-05 10:50:00,31.1,27.7,29.95,SSE,163,0.0,4.0,87,0.00,,---,0.06,VWS V14.01,2013-02-05 15:50:00,
2013-02-05 10:55:00,31.4,27.7,29.96,West,271,2.0,4.0,86,0.00,,---,0.06,VWS V14.01,2013-02-05 15:55:00,
2013-02-05 11:00:00,31.2,27.5,29.96,NW,305,2.0,4.0,86,0.00,,---,0.06,VWS V14.01,2013-02-05 16:00:00,
2013-02-05 11:05:00,31.0,27.3,29.96,West,278,2.0,4.0,86,0.00,,---,0.06,VWS V14.01,2013-02-05 16:05:00,
2013-02-05 11:10:00,31.1,27.4,29.96,SW,224,0.0,4.0,86,0.00,,---,0.06,VWS V14.01,2013-02-05 16:10:00,
2013-02-05 11:15:00,31.1,27.4,29.96,WNW,295,2.0,4.0,86,0.00,,---,0.06,VWS V14.01,2013-02-05 16:15:00,
2013-02-05 11:20:00,31.2,27.5,29.96,WNW,284,0.0,4.0,86,0.00,,---,0.06,VWS V14.01,2013-02-05 16:20:00,
2013-02-05 11:25:00,31.2,27.5,29.97,WNW,300,2.0,4.0,86,0.00,,---,0.06,VWS V14.01,2013-02-05 16:25:00,
2013-02-05 11:30:00,31.2,27.5,29.97,West,280,0.0,6.0,86,0.00,,---,0.06,VWS V14.01,2013-02-05 16:30:00,
2013-02-05 11:35:00,31.3,27.6,29.97,NW,305,0.0,3.0,86,0.00,,---,0.06,VWS V14.01,2013-02-05 16:35:00,
2013-02-05 11:40:00,31.2,27.2,29.97,WSW,249,3.0,5.0,85,0.00,,---,0.06,VWS V14.01,2013-02-05 16:40:00,
2013-02-05 11:45:00,31.5,27.8,29.97,NW,308,0.0,5.0,86,0.00,,---,0.06,VWS V14.01,2013-02-05 16:45:00,
2013-02-05 11:50:00,31.7,28.0,29.97,West,281,2.0,5.0,86,0.00,,---,0.06,VWS V14.01,2013-02-05 16:50:00,
2013-02-05 11:55:00,31.8,27.8,29.97,West,266,1.0,5.0,85,0.00,,---,0.06,VWS V14.01,2013-02-05 16:55:00,
2013-02-05 12:00:00,32.2,28.5,29.96,SSW,207,1.0,5.0,86,0.00,,---,0.06,VWS V14.01,2013-02-05 17:00:00,
2013-02-05 12:05:00,32.5,28.5,29.96,West,271,1.0,3.0,85,0.00,,---,0.06,VWS V14.01,2013-02-05 17:05:00,
2013-02-05 12:10:00,32.4,28.4,29.96,West,273,2.0,4.0,85,0.00,,---,0.06,VWS V14.01,2013-02-05 17:10:00,
2013-02-05 12:15:00,32.0,28.0,29.96,West,259,1.0,6.0,85,0.00,,---,0.06,VWS V14.01,2013-02-05 17:15:00,
2013-02-05 12:20:00,32.0,28.3,29.95,West,269,1.0,6.0,86,0.00,,---,0.06,VWS V14.01,2013-02-05 17:20:00,
2013-02-05 12:25:00,32.2,28.5,29.95,West,266,2.0,6.0,86,0.00,,---,0.06,VWS V14.01,2013-02-05 17:25:00,
2013-02-05 12:30:00,32.3,28.6,29.95,WNW,285,2.0,6.0,86,0.00,,---,0.06,VWS V14.01,2013-02-05 17:30:00,
2013-02-05 12:35:00,32.3,28.6,29.94,West,276,2.0,3.0,86,0.00,,---,0.06,VWS V14.01,2013-02-05 17:35:00,
2013-02-05 12:40:00,32.3,28.6,29.94,West,276,0.0,3.0,86,0.01,,---,0.07,VWS V14.01,2013-02-05 17:40:00,
2013-02-05 12:45:00,32.7,29.3,29.94,SSW,207,1.0,3.0,87,0.01,,---,0.07,VWS V14.01,2013-02-05 17:45:00,
2013-02-05 12:50:00,33.0,29.3,29.94,SSE,159,3.0,3.0,86,0.01,,---,0.07,VWS V14.01,2013-02-05 17:50:00,
2013-02-05 12:55:00,33.2,29.5,29.93,SSE,150,0.0,3.0,86,0.01,,---,0.07,VWS V14.01,2013-02-05 17:55:00,
2013-02-05 13:00:00,33.4,29.4,29.93,West,274,4.0,4.0,85,0.01,,---,0.07,VWS V14.01,2013-02-05 18:00:00,
2013-02-05 13:05:00,33.4,29.1,29.92,WNW,287,0.0,3.0,84,0.01,,---,0.07,VWS V14.01,2013-02-05 18:05:00,
2013-02-05 13:10:00,33.7,29.7,29.91,SSE,150,1.0,4.0,85,0.01,,---,0.07,VWS V14.01,2013-02-05 18:10:00,
2013-02-05 13:15:00,34.2,29.9,29.91,SW,226,2.0,6.0,84,0.01,,---,0.07,VWS V14.01,2013-02-05 18:15:00,
2013-02-05 13:20:00,34.6,29.7,29.91,SW,228,3.0,6.0,82,0.01,,---,0.07,VWS V14.01,2013-02-05 18:20:00,
2013-02-05 13:25:00,34.7,30.1,29.91,South,173,1.0,6.0,83,0.01,,---,0.07,VWS V14.01,2013-02-05 18:25:00,
2013-02-05 13:30:00,35.1,30.2,29.90,SSW,210,2.0,6.0,82,0.01,,---,0.07,VWS V14.01,2013-02-05 18:30:00,
2013-02-05 13:35:00,35.2,30.6,29.90,SSW,194,2.0,5.0,83,0.01,,---,0.07,VWS V14.01,2013-02-05 18:35:00,
2013-02-05 13:40:00,35.5,30.6,29.90,SSW,211,3.0,5.0,82,0.01,,---,0.07,VWS V14.01,2013-02-05 18:40:00,
2013-02-05 13:45:00,35.5,30.3,29.91,SSE,148,1.0,5.0,81,0.01,,---,0.07,VWS V14.01,2013-02-05 18:45:00,
2013-02-05 13:50:00,35.6,30.4,29.90,SSW,198,4.0,7.0,81,0.01,,---,0.07,VWS V14.01,2013-02-05 18:50:00,
2013-02-05 13:55:00,35.5,30.6,29.89,SE,141,1.0,7.0,82,0.01,,---,0.07,VWS V14.01,2013-02-05 18:55:00,
2013-02-05 14:00:00,35.3,30.1,29.90,WSW,254,0.0,7.0,81,0.01,,---,0.07,VWS V14.01,2013-02-05 19:00:00,
2013-02-05 14:05:00,35.3,30.4,29.90,South,172,3.0,3.0,82,0.00,,---,0.07,VWS V14.01,2013-02-05 19:05:00,
2013-02-05 14:10:00,35.4,30.5,29.90,SE,142,1.0,4.0,82,0.00,,---,0.07,VWS V14.01,2013-02-05 19:10:00,
2013-02-05 14:15:00,35.5,30.6,29.90,SW,225,2.0,4.0,82,0.00,,---,0.07,VWS V14.01,2013-02-05 19:15:00,
2013-02-05 14:20:00,35.5,30.3,29.90,SSW,208,1.0,6.0,81,0.00,,---,0.07,VWS V14.01,2013-02-05 19:20:00,
2013-02-05 14:25:00,35.6,30.4,29.90,SW,221,1.0,6.0,81,0.00,,---,0.07,VWS V14.01,2013-02-05 19:25:00,
2013-02-05 14:30:00,35.7,30.8,29.89,SSW,199,2.0,6.0,82,0.00,,---,0.07,VWS V14.01,2013-02-05 19:30:00,
2013-02-05 14:35:00,35.7,30.8,29.90,WNW,287,1.0,5.0,82,0.00,,---,0.07,VWS V14.01,2013-02-05 19:35:00,
2013-02-05 14:40:00,35.5,30.6,29.90,SSW,210,3.0,5.0,82,0.00,,---,0.07,VWS V14.01,2013-02-05 19:40:00,
2013-02-05 14:45:00,35.6,31.0,29.90,South,191,2.0,6.0,83,0.00,,---,0.07,VWS V14.01,2013-02-05 19:45:00,
2013-02-05 14:50:00,35.6,31.0,29.91,South,173,2.0,6.0,83,0.00,,---,0.07,VWS V14.01,2013-02-05 19:50:00,
2013-02-05 14:55:00,35.7,31.0,29.90,SW,218,1.0,6.0,83,0.00,,---,0.07,VWS V14.01,2013-02-05 19:55:00,
2013-02-05 15:00:00,35.8,31.1,29.90,SSW,193,1.0,6.0,83,0.00,,---,0.07,VWS V14.01,2013-02-05 20:00:00,
2013-02-05 15:05:00,35.9,31.2,29.90,SW,217,1.0,4.0,83,0.00,,---,0.07,VWS V14.01,2013-02-05 20:05:00,
2013-02-05 15:10:00,36.1,31.5,29.89,SE,141,1.0,4.0,83,0.00,,---,0.07,VWS V14.01,2013-02-05 20:10:00,
2013-02-05 15:15:00,36.3,31.6,29.89,WNW,283,0.0,4.0,83,0.00,,---,0.07,VWS V14.01,2013-02-05 20:15:00,
2013-02-05 15:20:00,36.4,31.7,29.89,WSW,240,0.0,4.0,83,0.01,,---,0.08,VWS V14.01,2013-02-05 20:20:00,
2013-02-05 15:25:00,36.4,31.4,29.89,SSE,159,4.0,4.0,82,0.01,,---,0.08,VWS V14.01,2013-02-05 20:25:00,
2013-02-05 15:30:00,36.5,31.5,29.89,SSW,208,1.0,4.0,82,0.01,,---,0.08,VWS V14.01,2013-02-05 20:30:00,
2013-02-05 15:35:00,36.5,31.8,29.89,SW,226,0.0,3.0,83,0.01,,---,0.08,VWS V14.01,2013-02-05 20:35:00,
2013-02-05 15:40:00,36.5,31.8,29.89,SW,219,0.0,3.0,83,0.01,,---,0.08,VWS V14.01,2013-02-05 20:40:00,
2013-02-05 15:45:00,36.5,31.8,29.89,SSW,204,1.0,3.0,83,0.01,,---,0.08,VWS V14.01,2013-02-05 20:45:00,
2013-02-05 15:50:00,36.6,31.9,29.88,East,91,1.0,3.0,83,0.01,,---,0.08,VWS V14.01,2013-02-05 20:50:00,
2013-02-05 15:55:00,36.8,32.1,29.88,SW,236,1.0,5.0,83,0.01,,---,0.08,VWS V14.01,2013-02-05 20:55:00,
2013-02-05 16:00:00,36.9,32.2,29.88,SW,219,3.0,5.0,83,0.01,,---,0.08,VWS V14.01,2013-02-05 21:00:00,
2013-02-05 16:05:00,36.9,32.2,29.87,SSW,204,2.0,5.0,83,0.01,,---,0.08,VWS V14.01,2013-02-05 21:05:00,
2013-02-05 16:10:00,36.9,32.2,29.87,SSE,149,4.0,5.0,83,0.01,,---,0.08,VWS V14.01,2013-02-05 21:10:00,
2013-02-05 16:15:00,36.9,31.9,29.87,SW,224,0.0,5.0,82,0.01,,---,0.08,VWS V14.01,2013-02-05 21:15:00,
2013-02-05 16:20:00,36.9,32.2,29.87,SE,133,1.0,5.0,83,0.01,,---,0.08,VWS V14.01,2013-02-05 21:20:00,
2013-02-05 16:25:00,37.0,32.6,29.87,South,176,0.0,5.0,84,0.01,,---,0.08,VWS V14.01,2013-02-05 21:25:00,
2013-02-05 16:30:00,37.0,32.3,29.87,SSW,207,1.0,5.0,83,0.01,,---,0.08,VWS V14.01,2013-02-05 21:30:00,
2013-02-05 16:35:00,37.0,32.3,29.86,SSW,198,1.0,4.0,83,0.00,,---,0.08,VWS V14.01,2013-02-05 21:35:00,
2013-02-05 16:40:00,37.0,32.6,29.86,WSW,240,2.0,4.0,84,0.00,,---,0.08,VWS V14.01,2013-02-05 21:40:00,
2013-02-05 16:45:00,37.0,32.6,29.86,SSW,208,2.0,4.0,84,0.00,,---,0.08,VWS V14.01,2013-02-05 21:45:00,
2013-02-05 16:50:00,37.1,32.7,29.85,South,181,3.0,6.0,84,0.00,,---,0.08,VWS V14.01,2013-02-05 21:50:00,
2013-02-05 16:55:00,37.1,32.7,29.86,South,174,1.0,6.0,84,0.01,,---,0.09,VWS V14.01,2013-02-05 21:55:00,
2013-02-05 17:00:00,37.2,32.8,29.85,WSW,240,2.0,6.0,84,0.01,,---,0.09,VWS V14.01,2013-02-05 22:00:00,
2013-02-05 17:05:00,37.2,32.8,29.85,SSE,149,0.0,4.0,84,0.01,,---,0.09,VWS V14.01,2013-02-05 22:05:00,
2013-02-05 17:10:00,37.2,32.8,29.85,SE,145,1.0,4.0,84,0.01,,---,0.09,VWS V14.01,2013-02-05 22:10:00,
2013-02-05 17:15:00,37.3,33.2,29.85,SSE,157,0.0,4.0,85,0.01,,---,0.09,VWS V14.01,2013-02-05 22:15:00,
2013-02-05 17:20:00,37.3,33.2,29.86,South,187,0.0,4.0,85,0.01,,---,0.09,VWS V14.01,2013-02-05 22:20:00,
2013-02-05 17:25:00,37.3,33.2,29.86,South,187,0.0,4.0,85,0.01,,---,0.09,VWS V14.01,2013-02-05 22:25:00,
2013-02-05 17:30:00,37.2,33.1,29.86,South,188,0.0,4.0,85,0.01,,---,0.09,VWS V14.01,2013-02-05 22:30:00,
2013-02-05 17:35:00,37.2,33.1,29.86,South,188,0.0,0.0,85,0.01,,---,0.09,VWS V14.01,2013-02-05 22:35:00,
2013-02-05 17:40:00,37.1,33.3,29.86,South,188,0.0,0.0,86,0.01,,---,0.09,VWS V14.01,2013-02-05 22:40:00,
2013-02-05 17:45:00,37.1,33.3,29.86,South,188,0.0,0.0,86,0.01,,---,0.09,VWS V14.01,2013-02-05 22:45:00,
2013-02-05 17:50:00,37.0,33.2,29.86,South,188,0.0,0.0,86,0.01,,---,0.09,VWS V14.01,2013-02-05 22:50:00,
2013-02-05 17:55:00,37.0,33.2,29.87,South,190,0.0,0.0,86,0.01,,---,0.09,VWS V14.01,2013-02-05 22:55:00,
2013-02-05 18:00:00,36.9,33.1,29.87,West,276,1.0,1.0,86,0.01,,---,0.09,VWS V14.01,2013-02-05 23:00:00,
2013-02-05 18:05:00,36.9,33.4,29.87,West,276,0.0,0.0,87,0.00,,---,0.09,VWS V14.01,2013-02-05 23:05:00,
2013-02-05 18:10:00,36.8,33.3,29.87,WSW,257,0.0,0.0,87,0.00,,---,0.09,VWS V14.01,2013-02-05 23:10:00,
2013-02-05 18:15:00,36.8,33.0,29.88,West,259,0.0,0.0,86,0.00,,---,0.09,VWS V14.01,2013-02-05 23:15:00,
2013-02-05 18:20:00,36.7,33.2,29.87,West,259,0.0,0.0,87,0.00,,---,0.09,VWS V14.01,2013-02-05 23:20:00,
2013-02-05 18:25:00,36.7,33.2,29.88,WSW,257,0.0,0.0,87,0.00,,---,0.09,VWS V14.01,2013-02-05 23:25:00,
2013-02-05 18:30:00,36.6,33.1,29.88,WSW,257,0.0,0.0,87,0.00,,---,0.09,VWS V14.01,2013-02-05 23:30:00,
2013-02-05 18:35:00,36.5,33.0,29.88,WSW,257,0.0,0.0,87,0.00,,---,0.09,VWS V14.01,2013-02-05 23:35:00,
2013-02-05 18:40:00,36.4,32.9,29.88,WSW,257,0.0,0.0,87,0.00,,---,0.09,VWS V14.01,2013-02-05 23:40:00,
2013-02-05 18:45:00,36.2,32.7,29.88,WSW,257,0.0,0.0,87,0.00,,---,0.09,VWS V14.01,2013-02-05 23:45:00,
2013-02-05 18:50:00,36.2,32.7,29.88,West,259,0.0,0.0,87,0.00,,---,0.09,VWS V14.01,2013-02-05 23:50:00,
2013-02-05 18:55:00,36.0,32.8,29.88,West,260,0.0,0.0,88,0.00,,---,0.09,VWS V14.01,2013-02-05 23:55:00,
2013-02-05 19:00:00,35.9,32.7,29.89,West,277,0.0,0.0,88,0.00,,---,0.09,VWS V14.01,2013-02-06 00:00:00,
2013-02-05 19:05:00,35.7,32.5,29.89,WNW,285,0.0,0.0,88,0.00,,---,0.09,VWS V14.01,2013-02-06 00:05:00,
2013-02-05 19:10:00,35.8,32.9,29.90,WNW,283,0.0,0.0,89,0.00,,---,0.09,VWS V14.01,2013-02-06 00:10:00,
2013-02-05 19:15:00,36.0,32.8,29.90,WNW,284,1.0,2.0,88,0.00,,---,0.09,VWS V14.01,2013-02-06 00:15:00,
2013-02-05 19:20:00,36.1,32.9,29.91,WNW,290,1.0,2.0,88,0.00,,---,0.09,VWS V14.01,2013-02-06 00:20:00,
2013-02-05 19:25:00,36.0,32.8,29.91,WNW,289,2.0,2.0,88,0.00,,---,0.09,VWS V14.01,2013-02-06 00:25:00,
2013-02-05 19:30:00,35.9,32.7,29.92,NW,305,1.0,2.0,88,0.00,,---,0.09,VWS V14.01,2013-02-06 00:30:00,
2013-02-05 19:35:00,35.8,32.6,29.92,WNW,284,1.0,2.0,88,0.00,,---,0.09,VWS V14.01,2013-02-06 00:35:00,
2013-02-05 19:40:00,35.7,32.5,29.92,WNW,294,1.0,3.0,88,0.00,,---,0.09,VWS V14.01,2013-02-06 00:40:00,
2013-02-05 19:45:00,35.5,32.3,29.93,WNW,297,2.0,3.0,88,0.00,,---,0.09,VWS V14.01,2013-02-06 00:45:00,
2013-02-05 19:50:00,35.6,32.4,29.93,West,281,1.0,3.0,88,0.00,,---,0.09,VWS V14.01,2013-02-06 00:50:00,
2013-02-05 19:55:00,35.6,32.4,29.93,WNW,284,1.0,3.0,88,0.00,,---,0.09,VWS V14.01,2013-02-06 00:55:00,
2013-02-05 20:00:00,35.6,32.4,29.94,West,281,1.0,3.0,88,0.00,,---,0.09,VWS V14.01,2013-02-06 01:00:00,
2013-02-05 20:05:00,35.7,32.5,29.94,WNW,284,1.0,3.0,88,0.00,,---,0.09,VWS V14.01,2013-02-06 01:05:00,
2013-02-05 20:10:00,35.9,32.7,29.94,WNW,300,2.0,4.0,88,0.00,,---,0.09,VWS V14.01,2013-02-06 01:10:00,
2013-02-05 20:15:00,36.3,33.1,29.94,WNW,290,2.0,5.0,88,0.00,,---,0.09,VWS V14.01,2013-02-06 01:15:00,
2013-02-05 20:20:00,36.7,33.2,29.94,WSW,256,4.0,8.0,87,0.00,,---,0.09,VWS V14.01,2013-02-06 01:20:00,
2013-02-05 20:25:00,37.0,33.2,29.95,WNW,287,4.0,8.0,86,0.00,,---,0.09,VWS V14.01,2013-02-06 01:25:00,
2013-02-05 20:30:00,37.2,33.1,29.95,WNW,300,3.0,8.0,85,0.00,,---,0.09,VWS V14.01,2013-02-06 01:30:00,
2013-02-05 20:35:00,37.2,33.1,29.95,WNW,283,5.0,5.0,85,0.00,,---,0.09,VWS V14.01,2013-02-06 01:35:00,
2013-02-05 20:40:00,37.2,33.1,29.95,WNW,296,4.0,5.0,85,0.00,,---,0.09,VWS V14.01,2013-02-06 01:40:00,
2013-02-05 20:45:00,37.2,33.1,29.96,WNW,287,1.0,6.0,85,0.00,,---,0.09,VWS V14.01,2013-02-06 01:45:00,
2013-02-05 20:50:00,37.2,33.1,29.96,West,263,2.0,6.0,85,0.00,,---,0.09,VWS V14.01,2013-02-06 01:50:00,
2013-02-05 20:55:00,37.1,33.0,29.96,WNW,293,1.0,6.0,85,0.00,,---,0.09,VWS V14.01,2013-02-06 01:55:00,
2013-02-05 21:00:00,37.0,32.9,29.96,WNW,295,1.0,6.0,85,0.00,,---,0.09,VWS V14.01,2013-02-06 02:00:00,
2013-02-05 21:05:00,37.0,32.9,29.97,WNW,293,1.0,2.0,85,0.00,,---,0.09,VWS V14.01,2013-02-06 02:05:00,
2013-02-05 21:10:00,36.9,32.8,29.97,West,263,1.0,2.0,85,0.00,,---,0.09,VWS V14.01,2013-02-06 02:10:00,
2013-02-05 21:15:00,36.9,32.8,29.97,West,264,3.0,5.0,85,0.00,,---,0.09,VWS V14.01,2013-02-06 02:15:00,
2013-02-05 21:20:00,36.9,32.5,29.97,South,191,1.0,5.0,84,0.00,,---,0.09,VWS V14.01,2013-02-06 02:20:00,
2013-02-05 21:25:00,36.9,32.5,29.97,West,274,1.0,5.0,84,0.00,,---,0.09,VWS V14.01,2013-02-06 02:25:00,
2013-02-05 21:30:00,36.9,32.5,29.97,West,259,6.0,6.0,84,0.00,,---,0.09,VWS V14.01,2013-02-06 02:30:00,
2013-02-05 21:35:00,36.9,32.5,29.97,WSW,239,2.0,3.0,84,0.00,,---,0.09,VWS V14.01,2013-02-06 02:35:00,
2013-02-05 21:40:00,36.9,32.5,29.97,WSW,253,2.0,5.0,84,0.00,,---,0.09,VWS V14.01,2013-02-06 02:40:00,
2013-02-05 21:45:00,37.0,32.6,29.97,West,273,1.0,5.0,84,0.00,,---,0.09,VWS V14.01,2013-02-06 02:45:00,
2013-02-05 21:50:00,36.9,32.5,29.98,West,278,1.0,5.0,84,0.00,,---,0.09,VWS V14.01,2013-02-06 02:50:00,
2013-02-05 21:55:00,36.9,32.5,29.98,WNW,284,1.0,5.0,84,0.00,,---,0.09,VWS V14.01,2013-02-06 02:55:00,
2013-02-05 22:00:00,36.9,32.5,29.98,West,273,1.0,5.0,84,0.00,,---,0.09,VWS V14.01,2013-02-06 03:00:00,
2013-02-05 22:05:00,37.0,32.6,29.98,West,274,1.0,4.0,84,0.00,,---,0.09,VWS V14.01,2013-02-06 03:05:00,
2013-02-05 22:10:00,37.0,32.6,29.98,West,263,3.0,4.0,84,0.00,,---,0.09,VWS V14.01,2013-02-06 03:10:00,
2013-02-05 22:15:00,37.0,32.6,29.98,West,269,3.0,4.0,84,0.00,,---,0.09,VWS V14.01,2013-02-06 03:15:00,
2013-02-05 22:20:00,37.1,32.7,29.99,West,271,1.0,4.0,84,0.00,,---,0.09,VWS V14.01,2013-02-06 03:20:00,
2013-02-05 22:25:00,37.1,32.7,29.99,WNW,302,1.0,5.0,84,0.00,,---,0.09,VWS V14.01,2013-02-06 03:25:00,
2013-02-05 22:30:00,37.2,32.8,29.99,WNW,291,2.0,5.0,84,0.00,,---,0.09,VWS V14.01,2013-02-06 03:30:00,
2013-02-05 22:35:00,37.3,32.9,29.99,WNW,293,3.0,4.0,84,0.00,,---,0.09,VWS V14.01,2013-02-06 03:35:00,
2013-02-05 22:40:00,37.4,33.0,30.00,WNW,301,4.0,4.0,84,0.00,,---,0.09,VWS V14.01,2013-02-06 03:40:00,
2013-02-05 22:45:00,37.5,32.8,30.00,West,274,2.0,5.0,83,0.00,,---,0.09,VWS V14.01,2013-02-06 03:45:00,
2013-02-05 22:50:00,37.4,33.0,30.00,West,277,2.0,5.0,84,0.00,,---,0.09,VWS V14.01,2013-02-06 03:50:00,
2013-02-05 22:55:00,37.3,32.9,30.00,NW,318,1.0,5.0,84,0.00,,---,0.09,VWS V14.01,2013-02-06 03:55:00,
2013-02-05 23:00:00,37.4,33.0,30.00,West,260,2.0,5.0,84,0.00,,---,0.09,VWS V14.01,2013-02-06 04:00:00,
2013-02-05 23:05:00,37.5,32.8,30.00,WNW,283,5.0,5.0,83,0.00,,---,0.09,VWS V14.01,2013-02-06 04:05:00,
2013-02-05 23:10:00,37.6,32.9,30.01,WNW,295,4.0,6.0,83,0.00,,---,0.09,VWS V14.01,2013-02-06 04:10:00,
2013-02-05 23:15:00,37.6,32.9,30.01,West,280,4.0,7.0,83,0.00,,---,0.09,VWS V14.01,2013-02-06 04:15:00,
2013-02-05 23:20:00,37.6,32.9,30.01,WNW,283,1.0,7.0,83,0.00,,---,0.09,VWS V14.01,2013-02-06 04:20:00,
2013-02-05 23:25:00,37.6,32.9,30.01,WNW,284,3.0,7.0,83,0.00,,---,0.09,VWS V14.01,2013-02-06 04:25:00,
2013-02-05 23:30:00,37.6,32.9,30.01,WNW,296,4.0,7.0,83,0.00,,---,0.09,VWS V14.01,2013-02-06 04:30:00,
2013-02-05 23:35:00,37.5,33.1,30.01,NW,317,1.0,5.0,84,0.00,,---,0.09,VWS V14.01,2013-02-06 04:35:00,
2013-02-05 23:40:00,37.5,33.1,30.02,NW,313,2.0,6.0,84,0.00,,---,0.09,VWS V14.01,2013-02-06 04:40:00,
2013-02-05 23:45:00,37.4,33.0,30.02,WSW,257,4.0,6.0,84,0.00,,---,0.09,VWS V14.01,2013-02-06 04:45:00,
2013-02-05 23:50:00,37.5,33.1,30.02,West,267,2.0,6.0,84,0.00,,---,0.09,VWS V14.01,2013-02-06 04:50:00,
2013-02-05 23:55:00,37.5,33.1,30.02,WNW,293,5.0,7.0,84,0.00,,---,0.09,VWS V14.01,2013-02-06 04:55:00,